Time;durP1;ratioP1;P1;durP2;ratioP2;P2;SDS_P1;SDS_P2;PMS_P1;PMS_P2;Temp;Humidity;BMP_temperature;BMP_pressure;BME280_temperature;BME280_humidity;BME280_pressure;Samples;Min_cycle;Max_cycle;Signal;HPM_P1;HPM_P2
2021/12/11 00:02:15;;;;;;;3.92;1.83;;;;;;;-8.64;88.28;101957.00;5043929;28;20124;-79
2021/12/11 00:04:44;;;;;;;3.80;2.17;;;;;;;-8.62;88.23;101967.53;5046997;28;20037;-79
2021/12/11 00:07:13;;;;;;;4.85;2.20;;;;;;;-8.60;88.05;101963.75;5050493;28;20033;-80
2021/12/11 00:09:44;;;;;;;;;;;;;;;-8.57;88.07;101966.16;5050842;28;20522;-79
2021/12/11 00:12:32;;;;;;;2.67;1.65;;;;;;;-8.55;87.96;101966.88;5050897;28;19920;-80
2021/12/11 00:15:07;;;;;;;5.45;2.92;;;;;;;-8.53;87.96;101958.78;5065955;28;20048;-80
2021/12/11 00:17:33;;;;;;;4.20;2.50;;;;;;;-8.52;87.89;101981.75;5049588;28;20415;-81
2021/12/11 00:20:00;;;;;;;3.92;2.67;;;;;;;-8.52;87.84;101961.31;5050084;28;20044;-80
2021/12/11 00:22:29;;;;;;;7.57;3.13;;;;;;;-8.50;87.93;101958.56;5038404;28;20060;-79
2021/12/11 00:25:05;;;;;;;4.13;2.22;;;;;;;-8.52;87.92;101950.66;5049264;28;20041;-80
2021/12/11 00:27:33;;;;;;;6.70;3.40;;;;;;;-8.52;87.98;101960.47;5016961;28;20044;-79
2021/12/11 00:30:00;;;;;;;2.85;1.98;;;;;;;-8.51;88.07;101962.16;5049078;28;20438;-80
2021/12/11 00:32:31;;;;;;;2.80;1.70;;;;;;;-8.52;88.02;101960.47;5035713;28;20044;-79
2021/12/11 00:35:10;;;;;;;4.32;1.92;;;;;;;-8.51;87.93;101962.16;5050881;28;20045;-80
2021/12/11 00:37:36;;;;;;;2.80;1.77;;;;;;;-8.51;88.15;101951.50;5048792;28;20033;-79
2021/12/11 00:40:05;;;;;;;5.68;2.63;;;;;;;-8.52;87.93;101961.31;5052241;28;20037;-79
2021/12/11 00:42:33;;;;;;;4.43;3.00;;;;;;;-8.50;87.90;101958.56;5053522;28;20037;-79
2021/12/11 00:45:09;;;;;;;3.70;1.88;;;;;;;-8.49;87.97;101956.75;5044539;28;20053;-77
2021/12/11 00:47:35;;;;;;;4.68;1.95;;;;;;;-8.48;87.86;101948.63;5049365;28;20040;-78
2021/12/11 00:50:07;;;;;;;7.28;2.60;;;;;;;-8.47;87.81;101942.34;5054047;28;20111;-77
2021/12/11 00:52:44;;;;;;;3.58;2.10;;;;;;;-8.46;87.94;101954.66;5056352;28;20040;-79
2021/12/11 00:55:38;;;;;;;1.92;1.30;;;;;;;-8.45;88.14;101961.69;5069364;28;20048;-79
2021/12/11 00:58:12;;;;;;;1.23;1.13;;;;;;;-8.45;88.09;101961.69;5051319;28;20533;-79
2021/12/11 01:00:46;;;;;;;0.65;0.65;;;;;;;-8.41;87.91;101968.44;5054278;28;20491;-79
2021/12/11 01:03:17;;;;;;;3.78;2.05;;;;;;;-8.40;88.14;101951.50;5069217;28;20033;-78
2021/12/11 01:05:45;;;;;;;5.75;2.67;;;;;;;-8.38;88.23;101952.22;5085809;28;20049;-79
2021/12/11 01:08:17;;;;;;;2.42;1.10;;;;;;;-8.37;88.10;101955.72;5034569;28;20033;-78
2021/12/11 01:10:43;;;;;;;3.85;2.45;;;;;;;-8.33;88.43;101954.44;5031722;28;20036;-80
2021/12/11 01:13:10;;;;;;;4.07;2.90;;;;;;;-8.29;88.36;101964.75;4997441;28;20491;-79
2021/12/11 01:15:45;;;;;;;7.47;3.47;;;;;;;-8.26;88.19;101958.31;5051985;28;20049;-79
2021/12/11 01:23:47;;;;;;;;;;;;;;;-8.18;88.41;101970.97;5052745;28;20033;-79
2021/12/11 01:26:20;;;;;;;3.13;1.15;;;;;;;-8.15;88.49;101952.97;5053355;28;19928;-79
2021/12/11 01:28:46;;;;;;;0.63;0.63;;;;;;;-8.12;88.35;101951.84;5052237;28;20195;-80
2021/12/11 01:31:14;;;;;;;5.78;2.75;;;;;;;-8.10;88.28;101956.06;5052244;28;20032;-79
2021/12/11 01:33:40;;;;;;;3.83;2.03;;;;;;;-8.08;88.45;101950.63;5035476;28;20072;-81
2021/12/11 01:36:08;;;;;;;3.97;2.33;;;;;;;-8.07;88.54;101939.84;5035766;28;20067;-79
2021/12/11 01:38:34;;;;;;;4.80;2.72;;;;;;;-8.07;88.60;101933.66;5051994;28;20112;-79
2021/12/11 01:41:05;;;;;;;3.63;1.50;;;;;;;-8.05;88.53;101937.03;5052992;28;20128;-79
2021/12/11 01:43:33;;;;;;;2.65;1.75;;;;;;;-8.05;88.55;101950.34;5052533;28;20040;-79
2021/12/11 01:46:00;;;;;;;4.97;2.88;;;;;;;-8.02;88.45;101934.13;5052656;28;20633;-78
2021/12/11 01:48:29;;;;;;;4.50;2.83;;;;;;;-8.03;88.72;101924.44;5049486;28;20075;-80
2021/12/11 01:51:15;;;;;;;4.15;2.35;;;;;;;-8.01;88.43;101931.31;5051264;28;20128;-80
2021/12/11 01:53:45;;;;;;;3.22;2.28;;;;;;;-7.99;88.41;101931.19;5050537;28;20052;-80
2021/12/11 01:56:14;;;;;;;5.40;2.50;;;;;;;-7.99;88.42;101933.84;5051417;28;20037;-80
2021/12/11 01:58:58;;;;;;;5.10;2.80;;;;;;;-7.98;88.55;101932.91;5051561;28;20041;-80
2021/12/11 02:01:44;;;;;;;2.03;1.85;;;;;;;-7.98;88.55;101938.22;5051719;28;20052;-79
2021/12/11 02:04:12;;;;;;;3.95;2.03;;;;;;;-7.97;88.45;101937.25;5051368;28;20126;-80
2021/12/11 02:06:40;;;;;;;5.28;2.95;;;;;;;-7.97;88.49;101939.91;5034737;28;20070;-80
2021/12/11 02:09:28;;;;;;;0.82;0.77;;;;;;;-7.97;88.87;101935.44;5052325;28;20064;-80
2021/12/11 02:12:05;;;;;;;7.07;3.05;;;;;;;-7.94;88.52;101937.00;5051258;28;20037;-80
2021/12/11 02:14:37;;;;;;;3.53;2.78;;;;;;;-7.95;88.39;101940.63;5018286;28;20033;-79
2021/12/11 02:17:04;;;;;;;4.22;2.17;;;;;;;-7.96;88.48;101937.13;5052227;28;20040;-78
2021/12/11 02:19:33;;;;;;;3.88;2.17;;;;;;;-7.95;88.66;101916.66;5052268;28;20392;-80
2021/12/11 02:22:01;;;;;;;6.10;2.95;;;;;;;-7.94;88.45;101931.66;5052186;28;20060;-80
2021/12/11 02:24:36;;;;;;;3.83;2.33;;;;;;;-7.94;88.68;101923.69;5067680;28;20418;-80
2021/12/11 02:27:08;;;;;;;4.07;2.97;;;;;;;-7.95;88.44;101922.00;5043004;28;20037;-80
2021/12/11 02:29:41;;;;;;;6.03;3.03;;;;;;;-7.95;88.51;101937.97;5060574;28;20037;-80
2021/12/11 02:32:19;;;;;;;5.82;2.70;;;;;;;-7.97;88.42;101930.09;5051286;28;20037;-80
2021/12/11 02:34:53;;;;;;;5.07;2.10;;;;;;;-8.00;88.47;101930.34;5051103;28;20037;-80
2021/12/11 02:37:33;;;;;;;4.25;2.28;;;;;;;-8.01;88.23;101919.81;5051298;28;20382;-80
2021/12/11 02:40:07;;;;;;;4.82;3.10;;;;;;;-8.02;88.22;101936.78;5039888;28;20148;-79
2021/12/11 02:42:37;;;;;;;3.15;1.95;;;;;;;-8.05;88.10;101911.25;5050820;28;20101;-79
2021/12/11 02:45:42;;;;;;;5.50;3.50;;;;;;;-8.05;87.99;101947.69;5067331;28;20058;-80
2021/12/11 02:48:19;;;;;;;5.50;2.60;;;;;;;-8.07;87.63;101923.00;5027900;28;20041;-79
2021/12/11 02:51:04;;;;;;;5.30;2.72;;;;;;;-8.09;87.75;101930.28;5050872;28;20136;-79
2021/12/11 02:53:44;;;;;;;5.35;2.05;;;;;;;-8.09;87.51;101920.47;5051131;28;20123;-80
2021/12/11 02:56:27;;;;;;;4.30;1.42;;;;;;;-8.07;87.13;101912.34;5035462;28;20033;-79
2021/12/11 02:58:56;;;;;;;4.10;1.92;;;;;;;-8.08;86.67;101926.66;5052075;28;20041;-79
2021/12/11 03:01:29;;;;;;;;;;;;;;;-8.07;86.32;101926.53;5052052;28;20032;-81
2021/12/11 03:04:22;;;;;;;4.38;2.70;;;;;;;-8.07;86.47;101920.34;5051653;28;19932;-81
2021/12/11 03:06:50;;;;;;;3.88;1.77;;;;;;;-8.10;86.27;101910.81;5052109;28;20503;-81
2021/12/11 03:09:20;;;;;;;2.60;1.40;;;;;;;-8.09;85.72;101909.81;5048775;28;20040;-81
2021/12/11 03:11:46;;;;;;;4.40;1.75;;;;;;;-8.09;85.69;101912.50;5050891;28;20083;-81
2021/12/11 03:14:14;;;;;;;2.30;1.50;;;;;;;-8.11;85.67;101902.94;5047479;28;20037;-81
2021/12/11 03:16:42;;;;;;;5.47;2.67;;;;;;;-8.12;85.30;101911.91;5046534;28;20084;-80
2021/12/11 03:19:10;;;;;;;4.30;1.95;;;;;;;-8.12;84.76;101890.59;5049224;28;20047;-80
2021/12/11 03:21:36;;;;;;;4.28;1.90;;;;;;;-8.12;84.59;101911.91;5049798;28;20044;-80
2021/12/11 03:24:04;;;;;;;3.60;1.80;;;;;;;-8.11;84.25;101913.59;5049771;28;20059;-80
2021/12/11 03:26:31;;;;;;;3.45;1.98;;;;;;;-8.10;84.42;101901.97;5050177;28;20040;-81
2021/12/11 03:28:56;;;;;;;4.90;2.00;;;;;;;-8.09;83.97;101914.31;5049713;28;20086;-80
2021/12/11 03:31:22;;;;;;;3.28;1.77;;;;;;;-8.08;83.86;101916.84;5049660;28;20033;-81
2021/12/11 03:33:52;;;;;;;3.15;2.15;;;;;;;-8.08;83.68;101908.00;5050689;28;20048;-81
2021/12/11 03:36:20;;;;;;;5.07;2.25;;;;;;;-8.08;82.84;101892.03;5044869;28;20033;-80
2021/12/11 03:38:56;;;;;;;2.33;1.58;;;;;;;-8.07;82.87;101912.34;5029840;28;20095;-80
2021/12/11 03:41:23;;;;;;;2.78;1.67;;;;;;;-8.07;82.85;101920.34;5045630;28;20507;-81
2021/12/11 03:43:49;;;;;;;4.57;2.15;;;;;;;-8.06;82.43;101892.75;5050352;28;20454;-80
2021/12/11 03:46:16;;;;;;;3.00;1.90;;;;;;;-8.06;82.53;101924.69;5050487;28;20085;-81
2021/12/11 03:48:49;;;;;;;2.42;1.70;;;;;;;-8.06;82.38;101884.75;5048321;28;20036;-80
2021/12/11 03:51:18;;;;;;;6.57;2.58;;;;;;;-8.08;81.95;101889.38;5049488;28;20075;-79
2021/12/11 03:53:44;;;;;;;3.53;1.80;;;;;;;-8.07;82.03;101880.41;5051841;28;20052;-80
2021/12/11 03:56:36;;;;;;;3.42;2.63;;;;;;;-8.07;81.63;101899.88;5025753;28;20059;-79
2021/12/11 03:59:08;;;;;;;2.13;1.38;;;;;;;-8.06;81.91;101887.41;5049643;28;20628;-80
2021/12/11 04:01:40;;;;;;;8.68;2.22;;;;;;;-8.05;82.02;101897.09;5043695;28;20128;-81
2021/12/11 04:04:10;;;;;;;4.38;2.40;;;;;;;-8.05;82.09;101905.09;5049371;28;20039;-79
2021/12/11 04:06:36;;;;;;;3.13;1.17;;;;;;;-8.03;82.18;101887.16;5032991;28;20037;-79
2021/12/11 04:09:06;;;;;;;3.05;1.30;;;;;;;-8.07;82.54;101893.72;5033216;28;20094;-79
2021/12/11 04:11:33;;;;;;;4.40;2.20;;;;;;;-8.07;82.07;101880.41;5049743;28;20071;-80
2021/12/11 04:14:04;;;;;;;3.17;1.88;;;;;;;-8.06;82.08;101882.09;5050626;28;20040;-80
2021/12/11 04:16:30;;;;;;;5.50;2.63;;;;;;;-8.05;82.27;101891.75;5049322;28;20045;-80
2021/12/11 04:18:56;;;;;;;3.17;2.08;;;;;;;-8.08;82.60;101863.56;5065832;28;20518;-80
2021/12/11 04:21:22;;;;;;;5.20;2.90;;;;;;;-8.07;82.59;101875.91;5032055;28;20132;-81
2021/12/11 04:23:48;;;;;;;4.30;2.10;;;;;;;-8.06;82.91;101874.09;5049231;28;20048;-81
2021/12/11 04:26:14;;;;;;;3.10;1.80;;;;;;;-8.07;83.11;101873.25;5047989;28;20033;-78
2021/12/11 04:28:41;;;;;;;3.00;2.20;;;;;;;-8.06;83.03;101876.75;5048013;28;20037;-79
2021/12/11 04:31:11;;;;;;;4.85;2.58;;;;;;;-8.07;83.31;101865.25;5054127;28;20038;-79
2021/12/11 04:33:42;;;;;;;3.05;1.90;;;;;;;-8.07;83.43;101859.09;5046620;28;20037;-79
2021/12/11 04:36:11;;;;;;;2.75;1.50;;;;;;;-8.06;83.32;101850.97;5048332;28;20139;-78
2021/12/11 04:38:38;;;;;;;4.90;2.15;;;;;;;-8.06;83.28;101871.44;5049429;28;20227;-78
2021/12/11 04:41:06;;;;;;;4.07;2.22;;;;;;;-8.07;83.48;101857.28;5045497;28;20528;-78
2021/12/11 04:43:33;;;;;;;3.42;2.28;;;;;;;-8.07;83.89;101867.09;5045557;28;20408;-77
2021/12/11 04:46:04;;;;;;;5.22;3.35;;;;;;;-8.07;84.04;101835.13;5063411;28;20141;-83
2021/12/11 04:51:27;;;;;;;6.00;3.72;;;;;;;-8.04;84.12;101848.19;5032053;28;20499;-79
2021/12/11 04:54:07;;;;;;;5.07;3.45;;;;;;;-8.02;83.89;101830.25;5048334;28;20055;-79
2021/12/11 04:59:42;;;;;;;4.72;3.70;;;;;;;-7.98;83.45;101829.88;5048737;28;20048;-79
2021/12/11 05:08:12;;;;;;;5.43;2.85;;;;;;;-7.97;84.00;101842.22;5067278;28;20041;-79
2021/12/11 05:11:03;;;;;;;6.03;3.65;;;;;;;-7.96;84.17;101835.06;5037091;28;20040;-79
2021/12/11 05:13:26;;;;;;;5.93;3.15;;;;;;;-7.96;84.29;101827.06;5050765;28;20045;-79
2021/12/11 05:15:53;;;;;;;5.82;4.00;;;;;;;-7.96;84.31;101816.41;5065345;28;20053;-79
2021/12/11 05:18:25;;;;;;;5.03;3.50;;;;;;;-7.97;84.30;101820.06;5035485;28;20449;-80
2021/12/11 05:20:54;;;;;;;4.97;3.75;;;;;;;-7.97;84.42;101825.38;5043792;28;20579;-79
2021/12/11 05:23:20;;;;;;;;;;;;;;;-7.97;84.58;101839.56;5050449;28;20052;-78
2021/12/11 05:25:46;;;;;;;6.18;4.18;;;;;;;-7.97;84.57;101823.56;5050407;28;19924;-78
2021/12/11 05:28:12;;;;;;;5.85;4.03;;;;;;;-7.96;84.54;101822.59;5052246;28;20029;-78
2021/12/11 05:30:41;;;;;;;4.88;4.05;;;;;;;-7.98;84.26;101827.22;5037704;28;20435;-78
2021/12/11 05:33:07;;;;;;;5.40;4.28;;;;;;;-7.97;84.52;101828.06;5052135;28;20529;-78
2021/12/11 05:35:36;;;;;;;6.47;3.13;;;;;;;-7.98;84.65;101827.22;5052083;28;20076;-78
2021/12/11 05:38:03;;;;;;;5.35;3.70;;;;;;;-7.98;84.62;101863.66;5035664;28;20127;-78
2021/12/11 05:40:31;;;;;;;4.40;3.50;;;;;;;-7.98;84.58;101850.34;5048791;28;20037;-78
2021/12/11 05:42:57;;;;;;;4.70;3.35;;;;;;;-7.96;84.87;101832.41;5044386;28;20037;-79
2021/12/11 05:45:23;;;;;;;5.47;3.15;;;;;;;-7.97;84.71;101828.06;5023452;28;20041;-78
2021/12/11 05:47:49;;;;;;;4.80;2.85;;;;;;;-7.97;84.34;101830.72;5051478;28;20041;-78
2021/12/11 05:50:23;;;;;;;5.63;4.05;;;;;;;-7.97;84.47;101854.69;5017132;28;20120;-78
2021/12/11 05:52:49;;;;;;;4.28;3.30;;;;;;;-7.98;84.70;101832.53;5052984;28;20047;-78
2021/12/11 05:55:18;;;;;;;7.65;3.13;;;;;;;-7.96;84.33;101824.41;5059299;28;20133;-78
2021/12/11 05:57:50;;;;;;;4.40;2.97;;;;;;;-7.95;84.31;101826.09;5052645;28;20037;-78
2021/12/11 06:00:18;;;;;;;4.35;2.90;;;;;;;-7.94;84.50;101828.63;5049409;28;20419;-78
2021/12/11 06:02:44;;;;;;;6.80;3.50;;;;;;;-7.92;84.71;101815.16;5062125;28;20083;-78
2021/12/11 06:05:10;;;;;;;5.00;3.63;;;;;;;-7.91;84.42;101843.50;5068170;28;20045;-78
2021/12/11 06:07:37;;;;;;;5.90;3.35;;;;;;;-7.93;84.16;101826.81;5034920;28;20132;-78
2021/12/11 06:10:08;;;;;;;5.93;3.67;;;;;;;-7.95;84.30;101834.94;5052818;28;20072;-78
2021/12/11 06:12:39;;;;;;;5.00;3.95;;;;;;;-7.93;83.52;101848.13;5050946;28;20037;-79
2021/12/11 06:15:05;;;;;;;7.22;4.22;;;;;;;-7.94;84.33;101857.09;5044488;28;20089;-78
2021/12/11 06:17:33;;;;;;;6.70;4.00;;;;;;;-7.94;84.34;101838.44;5048554;28;20044;-79
2021/12/11 06:20:00;;;;;;;7.13;3.17;;;;;;;-7.94;84.36;101836.63;5051933;28;20040;-78
2021/12/11 06:22:29;;;;;;;5.68;4.10;;;;;;;-7.93;84.13;101843.63;5045903;28;20045;-79
2021/12/11 06:24:57;;;;;;;6.80;3.90;;;;;;;-7.94;84.22;101859.75;5042116;28;20128;-79
2021/12/11 06:27:25;;;;;;;5.47;3.88;;;;;;;-7.96;84.47;101851.06;5075565;28;20071;-79
2021/12/11 06:29:51;;;;;;;5.82;3.75;;;;;;;-7.98;84.37;101837.03;5049912;28;20052;-79
2021/12/11 06:32:17;;;;;;;5.20;3.72;;;;;;;-7.99;84.52;101848.63;5047113;28;20048;-80
2021/12/11 06:34:43;;;;;;;8.35;3.40;;;;;;;-8.00;84.53;101855.75;5042920;28;20048;-80
2021/12/11 06:37:10;;;;;;;5.07;3.03;;;;;;;-7.96;84.54;101867.03;5048711;28;20118;-78
2021/12/11 06:39:36;;;;;;;7.13;4.00;;;;;;;-7.97;84.64;101863.53;5054434;28;20144;-78
2021/12/11 06:42:04;;;;;;;5.30;3.58;;;;;;;-7.97;84.47;101858.19;5041823;28;20033;-79
2021/12/11 06:44:31;;;;;;;7.57;3.75;;;;;;;-7.97;84.26;101849.34;5052045;28;20041;-78
2021/12/11 06:47:02;;;;;;;6.38;4.13;;;;;;;-7.96;84.47;101845.72;5067726;28;20045;-78
2021/12/11 06:49:31;;;;;;;6.80;4.10;;;;;;;-7.96;84.63;101859.03;5052185;28;20037;-78
2021/12/11 06:51:56;;;;;;;6.15;3.42;;;;;;;-7.95;84.70;101858.06;5066816;28;20078;-78
2021/12/11 06:54:22;;;;;;;8.30;4.93;;;;;;;-7.93;84.68;101878.25;5051951;28;20068;-78
2021/12/11 06:56:48;;;;;;;7.55;3.80;;;;;;;-7.95;84.65;101858.91;5056773;28;20041;-79
2021/12/11 06:59:14;;;;;;;6.72;4.13;;;;;;;-7.95;84.43;101844.75;5050507;28;20052;-78
2021/12/11 07:01:40;;;;;;;6.18;3.72;;;;;;;-7.95;84.44;101850.06;5031383;28;20041;-79
2021/12/11 07:04:09;;;;;;;7.68;3.88;;;;;;;-7.94;84.65;101847.28;5051798;28;20514;-80
2021/12/11 07:06:38;;;;;;;6.03;4.05;;;;;;;-7.92;84.45;101844.47;5054749;28;20526;-79
2021/12/11 07:09:05;;;;;;;5.20;3.55;;;;;;;-7.90;84.52;101845.19;5050573;28;20041;-79
2021/12/11 07:11:31;;;;;;;5.40;3.58;;;;;;;-7.89;84.47;101836.22;5033970;28;20035;-79
2021/12/11 07:13:57;;;;;;;5.22;3.38;;;;;;;-7.83;84.62;101843.66;5050328;28;20033;-79
2021/12/11 07:16:22;;;;;;;6.40;3.92;;;;;;;-7.78;84.42;101857.47;5051436;28;20151;-79
2021/12/11 07:18:50;;;;;;;6.22;4.00;;;;;;;-7.79;84.85;101826.47;5039300;28;20033;-79
2021/12/11 07:21:16;;;;;;;5.88;3.90;;;;;;;-7.75;84.88;101835.03;5058550;28;20033;-79
2021/12/11 07:23:47;;;;;;;7.47;4.55;;;;;;;-7.74;84.57;101834.91;5042075;28;20136;-79
2021/12/11 07:26:17;;;;;;;9.07;4.38;;;;;;;-7.73;84.59;101841.91;5050086;28;20127;-79
2021/12/11 07:28:46;;;;;;;5.95;4.07;;;;;;;-7.70;84.92;101836.31;5051504;28;20044;-78
2021/12/11 07:31:11;;;;;;;6.68;3.85;;;;;;;-7.69;84.74;101834.50;5058703;28;20585;-78
2021/12/11 07:33:37;;;;;;;8.50;3.70;;;;;;;-7.69;85.03;101835.34;5053675;28;20124;-78
2021/12/11 07:36:04;;;;;;;6.30;3.65;;;;;;;-7.64;84.86;101842.91;5001498;28;20043;-79
2021/12/11 07:38:31;;;;;;;6.72;4.53;;;;;;;-7.60;85.03;101836.38;5033479;28;20692;-79
2021/12/11 07:40:59;;;;;;;6.05;3.47;;;;;;;-7.56;85.18;101842.25;5049635;28;20044;-78
2021/12/11 07:43:26;;;;;;;5.90;3.78;;;;;;;-7.46;85.19;101849.34;5051437;28;20033;-78
2021/12/11 07:45:53;;;;;;;6.63;3.53;;;;;;;-7.45;85.38;101847.50;5033464;28;20099;-78
2021/12/11 07:48:19;;;;;;;6.57;4.25;;;;;;;-7.45;85.54;101850.19;5066470;28;20458;-78
2021/12/11 07:50:45;;;;;;;4.90;3.50;;;;;;;-7.42;85.43;101849.91;5033086;28;20072;-78
2021/12/11 07:53:13;;;;;;;6.47;3.70;;;;;;;-7.37;85.20;101858.34;5050735;28;20048;-78
2021/12/11 07:55:39;;;;;;;7.32;4.53;;;;;;;-7.35;85.41;101861.69;5084685;28;20044;-78
2021/12/11 07:58:06;;;;;;;7.45;4.50;;;;;;;-7.32;85.43;101856.94;5049859;28;20459;-78
2021/12/11 08:00:34;;;;;;;5.15;3.60;;;;;;;-7.27;85.81;101853.06;5054435;28;20496;-79
2021/12/11 08:03:00;;;;;;;7.05;4.50;;;;;;;-7.24;86.02;101852.78;5041839;28;20078;-78
2021/12/11 08:05:27;;;;;;;6.55;3.85;;;;;;;-7.22;86.23;101843.66;5050497;28;20459;-78
2021/12/11 08:07:53;;;;;;;7.15;4.10;;;;;;;-7.19;85.87;101846.03;5033433;28;20040;-78
2021/12/11 08:10:22;;;;;;;7.95;3.85;;;;;;;-7.16;85.69;101840.44;5035772;28;20034;-78
2021/12/11 08:12:48;;;;;;;;;;;;;;;-7.08;86.13;101837.94;5051291;28;20106;-79
2021/12/11 08:15:15;;;;;;;8.40;4.30;;;;;;;-7.05;86.07;101845.66;5046600;28;20394;-79
2021/12/11 08:17:41;;;;;;;6.18;4.47;;;;;;;-7.06;85.96;101830.63;5030503;28;20056;-79
2021/12/11 08:20:09;;;;;;;6.35;3.75;;;;;;;-7.05;85.96;101842.16;5017414;28;20033;-79
2021/12/11 08:22:35;;;;;;;7.60;4.22;;;;;;;-7.02;85.79;101839.19;5050371;28;20037;-79
2021/12/11 08:25:01;;;;;;;7.93;3.88;;;;;;;-7.00;86.11;101853.25;5050845;28;20040;-79
2021/12/11 08:27:27;;;;;;;7.53;3.90;;;;;;;-7.02;86.02;101847.22;5032782;28;20037;-79
2021/12/11 08:29:53;;;;;;;7.70;3.88;;;;;;;-7.02;86.13;101839.19;5066222;28;20041;-79
2021/12/11 08:32:21;;;;;;;8.18;4.63;;;;;;;-7.02;86.20;101855.22;5043027;28;20033;-79
2021/12/11 08:34:48;;;;;;;7.32;4.60;;;;;;;-7.00;85.98;101846.09;5015521;28;20037;-79
2021/12/11 08:37:16;;;;;;;6.82;4.25;;;;;;;-6.98;85.86;101848.59;5042844;28;20044;-79
2021/12/11 08:39:42;;;;;;;7.90;3.75;;;;;;;-6.96;86.17;101862.66;5031970;28;20493;-79
2021/12/11 08:42:11;;;;;;;8.05;4.75;;;;;;;-6.96;86.24;101849.31;5035271;28;20067;-78
2021/12/11 08:44:38;;;;;;;8.30;4.43;;;;;;;-6.94;86.13;101849.16;5043353;28;20078;-79
2021/12/11 08:47:09;;;;;;;7.47;4.50;;;;;;;-6.93;86.39;101846.41;5056580;28;20044;-79
2021/12/11 08:49:38;;;;;;;9.18;4.90;;;;;;;-6.93;86.38;101846.41;5045373;28;20095;-79
2021/12/11 08:52:33;;;;;;;8.13;4.35;;;;;;;-6.90;86.09;101839.94;5050375;28;20029;-79
2021/12/11 08:55:00;;;;;;;4.70;3.72;;;;;;;-6.87;86.16;101853.84;5054028;28;20048;-78
2021/12/11 08:57:31;;;;;;;8.18;4.70;;;;;;;-6.87;86.22;101842.31;5048509;28;20038;-78
2021/12/11 09:00:01;;;;;;;7.32;4.03;;;;;;;-6.87;86.47;101843.16;5053537;28;20044;-80
2021/12/11 09:02:34;;;;;;;7.13;4.55;;;;;;;-6.86;86.31;101842.19;5053393;28;20531;-79
2021/12/11 09:05:12;;;;;;;8.15;4.18;;;;;;;-6.84;86.59;101834.03;5035981;28;20704;-80
2021/12/11 09:07:46;;;;;;;7.03;3.35;;;;;;;-6.85;86.67;101821.69;5052903;28;20469;-79
2021/12/11 09:10:30;;;;;;;6.15;4.07;;;;;;;-6.85;86.81;101827.84;5062170;28;20041;-79
2021/12/11 09:13:03;;;;;;;6.72;4.25;;;;;;;-6.83;86.93;101833.91;5054369;28;20052;-80
2021/12/11 09:15:33;;;;;;;6.35;4.07;;;;;;;-6.80;86.76;101840.78;5035883;28;20114;-78
2021/12/11 09:18:06;;;;;;;7.70;3.97;;;;;;;-6.81;86.57;101823.91;5052924;28;20044;-78
2021/12/11 09:21:04;;;;;;;10.32;5.22;;;;;;;-6.77;86.41;101852.03;5052172;28;20032;-79
2021/12/11 09:23:39;;;;;;;6.90;4.07;;;;;;;-6.75;87.19;101828.72;5052749;28;20060;-79
2021/12/11 09:26:08;;;;;;;8.40;5.05;;;;;;;-6.72;86.80;101830.25;5035931;28;20136;-79
2021/12/11 09:28:50;;;;;;;9.55;5.32;;;;;;;-6.69;87.01;101827.31;5083246;28;20033;-79
2021/12/11 09:31:57;;;;;;;7.43;4.45;;;;;;;-6.64;87.13;101822.38;5063846;28;20037;-79
2021/12/11 09:34:27;;;;;;;7.32;5.80;;;;;;;-6.65;87.15;101828.72;5046542;28;20051;-79
2021/12/11 09:36:57;;;;;;;7.05;3.92;;;;;;;-6.62;87.22;101823.09;5048898;28;20045;-79
2021/12/11 09:39:33;;;;;;;7.53;5.25;;;;;;;-6.58;87.12;101837.03;5055883;28;20037;-79
2021/12/11 09:41:58;;;;;;;8.10;4.75;;;;;;;-6.56;87.23;101821.69;5053180;28;20400;-79
2021/12/11 09:44:51;;;;;;;7.38;3.75;;;;;;;-6.54;87.27;101833.91;5040401;28;20036;-79
2021/12/11 09:47:25;;;;;;;6.68;3.45;;;;;;;-6.53;87.47;101800.91;5057596;28;20574;-79
2021/12/11 09:49:57;;;;;;;8.32;4.90;;;;;;;-6.51;87.48;101825.63;5061914;28;20044;-79
2021/12/11 09:52:24;;;;;;;8.38;5.70;;;;;;;-6.50;87.25;101827.31;5067483;28;20037;-79
2021/12/11 09:54:56;;;;;;;8.05;4.43;;;;;;;-6.47;87.40;101816.34;5051675;28;20068;-79
2021/12/11 09:57:24;;;;;;;6.32;4.15;;;;;;;-6.46;87.37;101823.38;5051297;28;20053;-78
2021/12/11 09:59:51;;;;;;;8.10;4.65;;;;;;;-6.45;87.29;101827.72;5041226;28;20499;-76
2021/12/11 10:02:23;;;;;;;7.63;4.60;;;;;;;-6.41;87.19;101820.28;5046683;28;20087;-78
2021/12/11 10:05:00;;;;;;;7.53;4.80;;;;;;;-6.39;87.07;101829.00;5069025;28;20037;-79
2021/12/11 10:07:38;;;;;;;7.32;4.50;;;;;;;-6.39;87.31;101816.50;5072776;28;20091;-78
2021/12/11 10:10:17;;;;;;;9.70;4.80;;;;;;;-6.34;87.02;101804.53;5043010;28;20090;-78
2021/12/11 10:12:48;;;;;;;8.52;5.13;;;;;;;-6.37;87.10;101813.69;5048286;28;20496;-79
2021/12/11 10:15:38;;;;;;;7.72;4.88;;;;;;;-6.39;87.15;101823.66;5035020;28;20107;-78
2021/12/11 10:18:08;;;;;;;5.95;4.70;;;;;;;-6.39;87.20;101813.81;5047491;28;20549;-78
2021/12/11 10:20:43;;;;;;;6.68;3.50;;;;;;;-6.40;87.13;101821.97;5063709;28;20068;-78
2021/12/11 10:23:16;;;;;;;7.38;4.30;;;;;;;-6.41;87.12;101818.47;5051226;28;20041;-78
2021/12/11 10:25:42;;;;;;;8.15;4.72;;;;;;;-6.43;87.31;101827.56;5051903;28;20036;-74
2021/12/11 10:28:12;;;;;;;7.20;4.20;;;;;;;-6.47;87.41;101815.50;5057886;28;20048;-75
2021/12/11 10:30:44;;;;;;;8.32;4.50;;;;;;;-6.47;87.60;101820.84;5053619;28;20032;-74
2021/12/11 10:33:11;;;;;;;8.00;4.32;;;;;;;-6.46;87.43;101811.84;5047677;28;20041;-74
2021/12/11 10:35:41;;;;;;;6.90;4.20;;;;;;;-6.44;87.73;101818.72;5051282;28;20032;-79
2021/12/11 10:38:06;;;;;;;;;;;;;;;-6.42;88.14;101810.56;5051213;28;20041;-79
2021/12/11 10:40:37;;;;;;;7.18;4.43;;;;;;;-6.40;88.56;101809.47;5049577;28;20027;-80
2021/12/11 10:43:13;;;;;;;8.27;5.25;;;;;;;-6.39;88.62;101821.00;5051434;28;20477;-81
2021/12/11 10:45:39;;;;;;;9.30;5.30;;;;;;;-6.39;88.68;101821.84;5055349;28;20051;-81
2021/12/11 10:48:13;;;;;;;9.63;6.00;;;;;;;-6.43;88.55;101827.56;5051501;28;20067;-78
2021/12/11 10:50:46;;;;;;;7.47;4.65;;;;;;;-6.40;88.95;101817.47;5048144;28;20423;-78
2021/12/11 10:53:15;;;;;;;9.35;6.50;;;;;;;-6.40;89.15;101836.16;5049146;28;20549;-78
2021/12/11 10:55:42;;;;;;;10.35;5.72;;;;;;;-6.42;89.46;101831.94;5040567;28;20423;-82
2021/12/11 10:58:15;;;;;;;7.68;5.05;;;;;;;-6.42;89.42;101824.78;5053380;28;22017;-77
2021/12/11 11:00:48;;;;;;;6.97;4.80;;;;;;;-6.42;89.42;101824.78;5052712;28;20104;-78
2021/12/11 11:03:16;;;;;;;7.55;5.80;;;;;;;-6.44;89.17;101820.56;5050909;28;20037;-79
2021/12/11 11:05:42;;;;;;;9.10;5.03;;;;;;;-6.45;89.25;101816.19;5063649;28;20443;-78
2021/12/11 11:08:08;;;;;;;7.32;5.18;;;;;;;-6.46;89.41;101823.38;5048337;28;20052;-78
2021/12/11 11:10:42;;;;;;;8.57;5.00;;;;;;;-6.45;89.56;101814.38;5059672;28;20415;-78
2021/12/11 11:13:11;;;;;;;8.60;5.70;;;;;;;-6.45;89.78;101811.69;5052106;28;20099;-76
2021/12/11 11:15:37;;;;;;;8.45;5.93;;;;;;;-6.44;89.78;101801.84;5045490;28;20049;-78
2021/12/11 11:18:04;;;;;;;11.18;4.40;;;;;;;-6.44;89.82;101804.53;5049732;28;20029;-77
2021/12/11 11:20:34;;;;;;;6.75;4.00;;;;;;;-6.45;89.90;101806.34;5055613;28;20491;-75
2021/12/11 11:23:01;;;;;;;7.15;4.82;;;;;;;-6.46;89.75;101812.69;5051983;28;20033;-79
2021/12/11 11:25:30;;;;;;;3.90;2.55;;;;;;;-6.45;89.94;101808.19;5039903;28;20044;-78
2021/12/11 11:28:01;;;;;;;5.57;3.17;;;;;;;-6.45;89.94;101810.84;5067533;28;20088;-76
2021/12/11 11:30:34;;;;;;;5.72;3.10;;;;;;;-6.48;89.98;101798.63;5058397;28;20045;-75
2021/12/11 11:33:02;;;;;;;0.52;0.52;;;;;;;-6.45;90.01;101800.19;5052696;28;20521;-75
2021/12/11 11:35:31;;;;;;;7.32;2.75;;;;;;;-6.45;90.26;101803.69;5057200;28;20033;-73
2021/12/11 11:37:59;;;;;;;5.23;3.27;;;;;;;-6.45;90.18;101827.72;5033208;28;20048;-75
2021/12/11 11:40:33;;;;;;;4.30;2.75;;;;;;;-6.47;90.30;101810.16;5054558;28;20282;-73
2021/12/11 11:42:59;;;;;;;6.18;2.90;;;;;;;-6.46;90.30;101806.50;5058168;28;20043;-74
2021/12/11 11:45:27;;;;;;;4.95;3.20;;;;;;;-6.47;90.37;101820.84;5070706;28;20044;-75
2021/12/11 11:47:54;;;;;;;8.05;3.00;;;;;;;-6.50;90.13;101827.31;5048728;28;20051;-75
2021/12/11 11:50:30;;;;;;;5.68;2.95;;;;;;;-6.50;90.31;101823.78;5050986;28;20040;-74
2021/12/11 11:52:55;;;;;;;5.18;2.55;;;;;;;-6.50;90.36;101827.31;5050447;28;20048;-74
2021/12/11 11:55:26;;;;;;;5.03;3.15;;;;;;;-6.50;90.57;101829.97;5050025;28;20040;-74
2021/12/11 11:57:54;;;;;;;8.07;3.67;;;;;;;-6.51;90.42;101832.78;5065818;28;20072;-74
2021/12/11 12:00:28;;;;;;;5.85;3.92;;;;;;;-6.51;90.49;101846.13;5050589;28;20032;-75